createdAt,value
2017-09-28T00:00:07.510Z,21.50
2017-09-28T00:02:35.023Z,22.93
2017-09-28T00:05:02.714Z,23.97
2017-09-28T00:07:30.283Z,21.57
2017-09-28T00:09:57.962Z,22.37
2017-09-28T00:12:25.514Z,23.70
2017-09-28T00:14:53.066Z,22.30
2017-09-28T00:17:20.604Z,22.00
2017-09-28T00:19:48.170Z,22.93
2017-09-28T00:22:16.439Z,23.60
2017-09-28T00:24:43.963Z,23.23
2017-09-28T00:27:11.549Z,22.30
2017-09-28T00:29:39.071Z,22.10
2017-09-28T00:32:06.640Z,22.90
2017-09-28T00:34:34.191Z,21.70
2017-09-28T00:37:01.740Z,22.90
2017-09-28T00:39:29.275Z,24.80
2017-09-28T00:41:56.818Z,24.70
2017-09-28T00:44:24.400Z,24.00
2017-09-28T00:46:51.991Z,25.33
2017-09-28T00:49:19.541Z,24.27
2017-09-28T00:51:47.107Z,25.70
2017-09-28T00:54:14.650Z,25.00
2017-09-28T00:56:42.155Z,24.60
2017-09-28T00:59:09.746Z,26.20
2017-09-28T01:01:37.302Z,27.13
2017-09-28T01:04:05.598Z,26.43
2017-09-28T01:06:33.174Z,27.17
2017-09-28T01:09:00.779Z,25.80
2017-09-28T01:11:28.342Z,25.53
2017-09-28T01:13:55.879Z,26.93
2017-09-28T01:16:23.452Z,25.40
2017-09-28T01:18:51.748Z,24.60
2017-09-28T01:21:20.052Z,26.10
2017-09-28T01:23:47.577Z,26.53
2017-09-28T01:26:15.868Z,26.00
2017-09-28T01:28:43.406Z,25.70
2017-09-28T01:31:10.910Z,26.03
2017-09-28T01:33:38.463Z,25.17
2017-09-28T01:36:06.023Z,26.43
2017-09-28T01:38:33.618Z,26.37
2017-09-28T01:41:01.215Z,25.90
2017-09-28T01:43:29.016Z,25.03
2017-09-28T01:45:56.531Z,25.03
2017-09-28T01:48:24.116Z,25.10
2017-09-28T01:50:51.667Z,26.20
2017-09-28T01:53:19.257Z,26.30
2017-09-28T01:55:46.835Z,27.40
2017-09-28T01:58:15.464Z,27.40
2017-09-28T02:00:43.036Z,25.50
2017-09-28T02:03:10.591Z,27.33
2017-09-28T02:05:38.168Z,26.27
2017-09-28T02:08:05.697Z,28.47
2017-09-28T02:10:33.979Z,25.77
2017-09-28T02:13:02.286Z,27.37
2017-09-28T02:15:29.814Z,26.80
2017-09-28T02:17:57.415Z,26.43
2017-09-28T02:20:24.955Z,26.80
2017-09-28T02:22:52.519Z,27.40
2017-09-28T02:25:20.074Z,27.37
2017-09-28T02:27:47.946Z,27.07
2017-09-28T02:30:15.740Z,26.87
2017-09-28T02:32:43.302Z,26.87
2017-09-28T02:35:10.813Z,27.30
2017-09-28T02:37:39.127Z,28.27
2017-09-28T02:40:06.797Z,28.33
2017-09-28T02:42:34.382Z,26.67
2017-09-28T02:45:01.925Z,27.60
2017-09-28T02:47:29.435Z,29.10
2017-09-28T02:49:57.039Z,27.90
2017-09-28T02:52:24.600Z,26.97
2017-09-28T02:54:52.100Z,28.23
2017-09-28T02:57:20.393Z,27.20
2017-09-28T02:59:47.946Z,27.47
2017-09-28T03:02:16.217Z,28.73
2017-09-28T03:04:43.742Z,28.90
2017-09-28T03:07:11.274Z,29.33
2017-09-28T03:09:38.794Z,29.80
2017-09-28T03:12:07.063Z,30.23
2017-09-28T03:14:34.619Z,28.67
2017-09-28T03:17:02.153Z,29.43
2017-09-28T03:19:29.709Z,29.90
2017-09-28T03:21:57.214Z,31.93
2017-09-28T03:24:24.773Z,29.67
2017-09-28T03:26:52.272Z,29.07
2017-09-28T03:29:19.872Z,29.93
2017-09-28T03:31:47.379Z,28.97
2017-09-28T03:34:15.772Z,27.57
2017-09-28T03:36:43.295Z,29.07
2017-09-28T03:39:11.174Z,28.30
2017-09-28T03:41:38.696Z,28.93
2017-09-28T03:44:06.971Z,28.10
2017-09-28T03:46:34.524Z,26.77
2017-09-28T03:49:02.086Z,26.80
2017-09-28T03:51:29.610Z,26.60
2017-09-28T03:53:57.173Z,25.10
2017-09-28T03:56:24.722Z,25.90
2017-09-28T03:58:52.263Z,25.67
2017-09-28T04:01:19.814Z,25.97
2017-09-28T04:03:47.365Z,26.33
2017-09-28T04:06:15.655Z,25.77
2017-09-28T04:08:43.151Z,25.27
2017-09-28T04:11:10.737Z,26.53
2017-09-28T04:13:38.288Z,25.47
2017-09-28T04:16:06.248Z,25.30
2017-09-28T04:18:33.797Z,26.47
2017-09-28T04:21:01.320Z,27.70
2017-09-28T04:23:28.884Z,26.50
2017-09-28T04:25:56.409Z,27.27
2017-09-28T04:28:23.916Z,29.10
2017-09-28T04:30:51.444Z,29.40
2017-09-28T04:33:19.722Z,28.93
2017-09-28T04:35:48.043Z,30.23
2017-09-28T04:38:15.545Z,29.50
2017-09-28T04:40:43.827Z,29.20
2017-09-28T04:43:11.391Z,25.10
2017-09-28T04:45:39.670Z,28.07
2017-09-28T04:48:07.930Z,28.07
2017-09-28T04:50:36.245Z,26.90
2017-09-28T04:53:03.757Z,27.77
2017-09-28T04:55:31.320Z,30.10
2017-09-28T04:57:59.641Z,31.80
2017-09-28T05:00:27.164Z,30.43
2017-09-28T05:02:54.699Z,28.50
2017-09-28T05:05:22.221Z,29.70
2017-09-28T05:07:49.737Z,29.33
2017-09-28T05:10:17.308Z,30.77
2017-09-28T05:12:44.857Z,28.10
2017-09-28T05:15:12.359Z,26.70
2017-09-28T05:17:39.896Z,26.60
2017-09-28T05:20:07.560Z,28.10
2017-09-28T05:22:35.082Z,28.07
2017-09-28T05:25:02.660Z,28.20
2017-09-28T05:27:30.990Z,26.17
2017-09-28T05:29:58.501Z,29.50
2017-09-28T05:32:27.616Z,27.17
2017-09-28T05:34:55.138Z,27.70
2017-09-28T05:37:22.720Z,26.53
2017-09-28T05:39:50.216Z,26.47
2017-09-28T05:42:17.780Z,24.77
2017-09-28T05:44:45.298Z,24.70
2017-09-28T05:47:13.571Z,23.87
2017-09-28T05:49:41.898Z,24.63
2017-09-28T05:52:09.456Z,26.00
2017-09-28T05:54:36.985Z,27.43
2017-09-28T05:57:04.497Z,25.70
2017-09-28T05:59:32.042Z,22.97
2017-09-28T06:01:59.631Z,25.53
2017-09-28T06:04:27.232Z,27.17
2017-09-28T06:06:54.742Z,25.33
2017-09-28T06:09:22.265Z,27.00
2017-09-28T06:11:49.790Z,25.93
2017-09-28T06:14:17.338Z,26.27
2017-09-28T06:16:44.844Z,25.97
2017-09-28T06:19:12.369Z,25.37
2017-09-28T06:21:40.651Z,21.90
2017-09-28T06:24:08.216Z,24.87
2017-09-28T06:26:35.757Z,24.77
2017-09-28T06:29:03.280Z,22.43
2017-09-28T06:31:30.840Z,23.50
2017-09-28T06:33:58.416Z,23.13
2017-09-28T06:36:25.936Z,22.97
2017-09-28T06:38:53.470Z,23.83
2017-09-28T06:41:21.025Z,22.83
2017-09-28T06:43:48.592Z,23.33
2017-09-28T06:46:16.103Z,22.20
2017-09-28T06:48:43.700Z,21.60
2017-09-28T06:51:11.204Z,23.30
2017-09-28T06:53:38.769Z,23.23
2017-09-28T06:56:06.300Z,21.70
2017-09-28T06:58:33.821Z,20.70
2017-09-28T07:01:02.156Z,22.40
2017-09-28T07:03:29.874Z,21.50
2017-09-28T07:05:57.539Z,22.53
2017-09-28T07:08:25.080Z,20.03
2017-09-28T07:10:53.393Z,21.90
2017-09-28T07:13:21.118Z,19.73
2017-09-28T07:15:48.658Z,17.93
2017-09-28T07:18:16.178Z,18.57
2017-09-28T07:20:43.738Z,18.90
2017-09-28T07:23:11.309Z,19.30
2017-09-28T07:25:38.905Z,18.17
2017-09-28T07:28:06.495Z,17.90
2017-09-28T07:30:34.185Z,16.60
2017-09-28T07:33:01.968Z,18.37
2017-09-28T07:35:29.930Z,16.80
2017-09-28T07:37:57.444Z,17.07
2017-09-28T07:40:24.971Z,17.23
2017-09-28T07:42:52.520Z,16.70
2017-09-28T07:45:20.033Z,17.17
2017-09-28T07:47:47.526Z,17.67
2017-09-28T07:50:15.205Z,17.43
2017-09-28T07:52:42.728Z,17.40
2017-09-28T07:55:10.246Z,16.80
2017-09-28T07:57:37.811Z,16.83
2017-09-28T08:00:06.443Z,16.53
2017-09-28T08:02:33.991Z,17.90
2017-09-28T08:05:01.543Z,17.47
2017-09-28T08:07:30.666Z,16.83
2017-09-28T08:09:58.208Z,28.43
2017-09-28T08:12:25.716Z,24.30
2017-09-28T08:14:53.289Z,22.93
2017-09-28T08:17:21.574Z,20.17
2017-09-28T08:19:49.898Z,24.47
2017-09-28T08:22:17.464Z,21.53
2017-09-28T08:24:44.980Z,20.93
2017-09-28T08:27:12.513Z,15.40
2017-09-28T08:29:40.121Z,15.40
2017-09-28T08:32:09.036Z,15.60
2017-09-28T08:34:36.594Z,14.43
2017-09-28T08:37:04.094Z,14.57
2017-09-28T08:39:31.717Z,14.97
2017-09-28T08:41:59.228Z,13.37
2017-09-28T08:44:28.243Z,13.33
2017-09-28T08:46:55.825Z,12.90
2017-09-28T08:49:23.367Z,12.30
2017-09-28T08:51:50.935Z,12.27
2017-09-28T08:54:18.493Z,13.27
2017-09-28T08:56:45.997Z,12.73
2017-09-28T08:59:13.539Z,11.10
2017-09-28T09:01:41.030Z,10.97
2017-09-28T09:04:09.309Z,10.80
2017-09-28T09:06:37.653Z,10.63
2017-09-28T09:09:05.221Z,10.53
2017-09-28T09:11:32.768Z,9.40
2017-09-28T09:14:00.287Z,9.63
2017-09-28T09:16:27.828Z,10.10
2017-09-28T09:18:55.387Z,9.00
2017-09-28T09:21:23.649Z,9.20
2017-09-28T09:23:51.338Z,8.80
2017-09-28T09:26:20.732Z,10.37
2017-09-28T09:28:50.943Z,9.10
2017-09-28T09:31:21.763Z,8.90
2017-09-28T09:33:49.309Z,8.77
2017-09-28T09:36:18.049Z,9.10
2017-09-28T09:38:47.183Z,8.77
2017-09-28T09:41:15.798Z,10.40
2017-09-28T09:43:44.325Z,8.80
2017-09-28T09:46:13.121Z,9.17
2017-09-28T09:48:41.665Z,9.90
2017-09-28T09:51:09.604Z,20.47
2017-09-28T09:53:58.082Z,17.10
2017-09-28T10:02:33.459Z,9.30
2017-09-28T10:18:17.927Z,9.57
2017-09-28T10:20:47.629Z,9.90
2017-09-28T10:23:19.985Z,9.73
2017-09-28T10:28:34.165Z,8.37
2017-09-28T10:31:35.265Z,8.90
2017-09-28T10:38:28.481Z,8.77
2017-09-28T10:40:57.414Z,8.60
2017-09-28T10:52:18.783Z,7.70
2017-09-28T11:07:15.959Z,6.90
2017-09-28T11:12:46.861Z,7.63
2017-09-28T11:15:15.347Z,7.07
2017-09-28T11:17:44.613Z,7.37
2017-09-28T11:23:16.123Z,7.37
2017-09-28T11:25:46.832Z,6.60
2017-09-28T11:28:17.116Z,7.63
2017-09-28T11:30:44.898Z,7.50
2017-09-28T11:33:13.770Z,7.20
2017-09-28T11:35:43.202Z,7.23
2017-09-28T11:38:11.380Z,7.50
2017-09-28T11:40:44.090Z,7.27
2017-09-28T11:43:11.606Z,7.87
2017-09-28T11:45:39.136Z,7.00
2017-09-28T11:48:06.696Z,6.83
2017-09-28T11:50:35.026Z,6.60
2017-09-28T11:53:03.818Z,8.13
2017-09-28T11:55:31.597Z,7.47
2017-09-28T11:58:02.384Z,6.93
2017-09-28T12:00:29.909Z,7.03
2017-09-28T12:02:57.606Z,6.60
2017-09-28T12:05:25.159Z,7.80
2017-09-28T12:07:52.789Z,7.30
2017-09-28T12:10:20.316Z,7.80
2017-09-28T12:12:48.625Z,8.43
2017-09-28T12:15:16.838Z,7.00
2017-09-28T12:17:44.516Z,6.77
2017-09-28T12:20:12.095Z,7.10
2017-09-28T12:22:39.643Z,7.33
2017-09-28T12:25:07.155Z,11.63
2017-09-28T12:27:34.676Z,7.30
2017-09-28T12:30:02.259Z,7.10
2017-09-28T12:32:29.795Z,6.40
2017-09-28T12:34:57.302Z,7.50
2017-09-28T12:37:24.806Z,6.73
2017-09-28T12:39:52.382Z,7.27
2017-09-28T12:42:19.965Z,7.40
2017-09-28T12:44:47.547Z,6.80
2017-09-28T12:47:15.048Z,6.70
2017-09-28T12:49:42.604Z,7.13
2017-09-28T12:52:10.191Z,6.67
2017-09-28T12:54:37.721Z,7.07
2017-09-28T12:57:05.274Z,8.20
2017-09-28T12:59:33.604Z,7.30
2017-09-28T13:02:01.725Z,7.33
2017-09-28T13:04:30.031Z,6.90
2017-09-28T13:06:57.570Z,6.50
2017-09-28T13:09:25.878Z,7.10
2017-09-28T13:11:53.393Z,7.40
2017-09-28T13:14:20.888Z,6.83
2017-09-28T13:16:49.307Z,6.10
2017-09-28T13:19:17.488Z,6.40
2017-09-28T13:21:45.192Z,6.23
2017-09-28T13:24:12.708Z,7.93
2017-09-28T13:26:40.241Z,6.90
2017-09-28T13:29:07.868Z,7.60
2017-09-28T13:31:35.385Z,10.60
2017-09-28T13:34:02.924Z,10.20
2017-09-28T13:36:31.247Z,10.17
2017-09-28T13:38:58.774Z,9.33
2017-09-28T13:41:26.301Z,8.60
2017-09-28T13:43:53.902Z,7.23
2017-09-28T13:46:21.418Z,10.93
2017-09-28T13:48:48.939Z,11.50
2017-09-28T13:51:16.513Z,15.40
2017-09-28T13:53:44.048Z,9.63
2017-09-28T13:56:11.564Z,7.30
2017-09-28T13:58:39.114Z,6.33
2017-09-28T14:01:06.701Z,6.93
2017-09-28T14:03:34.235Z,7.17
2017-09-28T14:06:01.729Z,7.23
2017-09-28T14:08:30.050Z,7.80
2017-09-28T14:10:58.332Z,7.17
2017-09-28T14:13:26.709Z,6.83
2017-09-28T14:15:54.306Z,6.60
2017-09-28T14:18:21.855Z,6.20
2017-09-28T14:20:49.453Z,6.70
2017-09-28T14:23:17.041Z,6.80
2017-09-28T14:25:44.594Z,6.70
2017-09-28T14:28:12.948Z,6.53
2017-09-28T14:30:41.080Z,7.10
2017-09-28T14:33:08.636Z,7.50
2017-09-28T14:35:36.167Z,7.30
2017-09-28T14:38:04.620Z,7.13
2017-09-28T14:40:34.718Z,7.60
2017-09-28T14:46:27.396Z,6.60
2017-09-28T14:48:56.115Z,7.60
2017-09-28T14:51:24.035Z,6.30
2017-09-28T14:53:52.587Z,7.43
2017-09-28T14:56:21.554Z,8.40
2017-09-28T14:58:49.082Z,7.17
2017-09-28T15:01:17.580Z,7.23
2017-09-28T15:04:01.899Z,7.70
2017-09-28T15:06:41.519Z,7.03
2017-09-28T15:09:11.328Z,8.00
2017-09-28T15:11:38.895Z,7.33
2017-09-28T15:14:06.423Z,6.93
2017-09-28T15:16:34.708Z,6.90
2017-09-28T15:19:03.205Z,6.77
2017-09-28T15:21:30.798Z,7.97
2017-09-28T15:23:58.526Z,7.70
2017-09-28T15:26:26.137Z,7.90
2017-09-28T15:28:53.673Z,7.87
2017-09-28T15:31:21.214Z,6.90
2017-09-28T15:33:48.880Z,7.33
2017-09-28T15:36:17.275Z,6.60
2017-09-28T15:38:45.608Z,6.40
2017-09-28T15:41:13.193Z,7.70
2017-09-28T15:43:40.814Z,7.63
2017-09-28T15:46:08.424Z,7.87
2017-09-28T15:48:36.046Z,7.13
2017-09-28T15:51:04.456Z,8.00
2017-09-28T15:53:32.816Z,7.90
2017-09-28T15:56:00.394Z,8.70
2017-09-28T15:58:27.952Z,8.30
2017-09-28T16:00:56.445Z,7.87
2017-09-28T16:03:24.103Z,7.27
2017-09-28T16:05:52.336Z,7.20
2017-09-28T16:08:19.856Z,7.87
2017-09-28T16:10:47.481Z,7.20
2017-09-28T16:13:15.811Z,7.40
2017-09-28T16:15:43.376Z,7.00
2017-09-28T16:18:10.999Z,7.07
2017-09-28T16:20:38.616Z,6.97
2017-09-28T16:23:06.174Z,6.57
2017-09-28T16:25:33.725Z,6.60
2017-09-28T16:28:01.273Z,7.83
2017-09-28T16:30:28.902Z,7.30
2017-09-28T16:32:56.426Z,7.73
2017-09-28T16:35:23.966Z,6.80
2017-09-28T16:37:51.548Z,7.10
2017-09-28T16:40:19.887Z,7.43
2017-09-28T16:42:48.357Z,6.70
2017-09-28T16:45:16.016Z,7.40
2017-09-28T16:47:43.547Z,8.17
2017-09-28T16:50:11.951Z,7.10
2017-09-28T16:52:39.504Z,7.20
2017-09-28T16:55:07.042Z,7.30
2017-09-28T16:57:35.637Z,7.23
2017-09-28T17:00:03.424Z,6.27
2017-09-28T17:02:31.385Z,7.43
2017-09-28T17:04:58.967Z,7.90
2017-09-28T17:07:26.491Z,6.47
2017-09-28T17:09:54.080Z,7.37
2017-09-28T17:12:21.671Z,7.77
2017-09-28T17:14:49.226Z,9.50
2017-09-28T17:17:16.799Z,11.87
2017-09-28T17:19:44.382Z,12.30
2017-09-28T17:22:12.678Z,10.87
2017-09-28T17:24:40.221Z,14.73
2017-09-28T17:27:08.525Z,15.40
2017-09-28T17:29:36.350Z,24.00
2017-09-28T17:32:04.721Z,17.17
2017-09-28T17:34:32.309Z,10.90
2017-09-28T17:36:59.870Z,14.50
2017-09-28T17:39:27.440Z,14.40
2017-09-28T17:41:54.954Z,14.27
2017-09-28T17:44:22.561Z,16.43
2017-09-28T17:46:50.112Z,11.17
2017-09-28T17:49:17.724Z,13.07
2017-09-28T17:51:45.289Z,10.53
2017-09-28T17:54:12.913Z,9.83
2017-09-28T17:56:40.574Z,8.90
2017-09-28T17:59:08.089Z,8.13
2017-09-28T18:01:36.453Z,9.73
2017-09-28T18:04:04.102Z,9.30
2017-09-28T18:06:31.668Z,8.20
2017-09-28T18:08:59.247Z,9.00
2017-09-28T18:11:26.808Z,9.50
2017-09-28T18:13:55.245Z,10.13
2017-09-28T18:16:22.787Z,10.83
2017-09-28T18:18:50.360Z,11.10
2017-09-28T18:21:17.930Z,11.70
2017-09-28T18:23:45.520Z,10.63
2017-09-28T18:26:13.129Z,11.37
2017-09-28T18:28:40.664Z,10.80
2017-09-28T18:31:10.248Z,10.60
2017-09-28T18:33:38.750Z,11.73
2017-09-28T18:36:06.391Z,10.90
2017-09-28T18:38:33.989Z,12.17
2017-09-28T18:41:01.585Z,10.20
2017-09-28T18:43:29.962Z,10.20
2017-09-28T18:45:58.305Z,11.13
2017-09-28T18:48:25.887Z,11.23
2017-09-28T18:50:53.471Z,11.60
2017-09-28T18:53:21.163Z,11.30
2017-09-28T18:55:49.628Z,11.60
2017-09-28T18:58:18.988Z,11.40
2017-09-28T19:00:48.369Z,12.40
2017-09-28T19:03:15.957Z,11.10
2017-09-28T19:05:43.675Z,11.03
2017-09-28T19:08:11.319Z,13.27
2017-09-28T19:10:38.921Z,11.97
2017-09-28T19:13:06.564Z,12.10
2017-09-28T19:15:35.140Z,12.07
2017-09-28T19:18:02.783Z,12.60
2017-09-28T19:20:30.369Z,10.90
2017-09-28T19:22:58.728Z,12.67
2017-09-28T19:25:26.246Z,11.37
2017-09-28T19:27:53.900Z,11.70
2017-09-28T19:30:21.566Z,11.37
2017-09-28T19:32:49.100Z,11.70
2017-09-28T19:35:17.476Z,11.67
2017-09-28T19:37:45.825Z,11.67
2017-09-28T19:40:13.437Z,10.80
2017-09-28T19:42:41.054Z,12.73
2017-09-28T19:45:08.871Z,13.10
2017-09-28T19:47:36.454Z,11.63
2017-09-28T19:50:05.374Z,12.80
2017-09-28T19:52:33.007Z,12.10
2017-09-28T19:55:01.461Z,11.77
2017-09-28T19:57:29.042Z,11.70
2017-09-28T19:59:56.577Z,12.73
2017-09-28T20:02:24.166Z,11.40
2017-09-28T20:04:51.826Z,12.27
2017-09-28T20:07:19.788Z,11.43
2017-09-28T20:09:48.107Z,12.47
2017-09-28T20:12:15.835Z,12.60
2017-09-28T20:14:45.817Z,14.00
2017-09-28T20:17:13.427Z,12.87
2017-09-28T20:19:41.040Z,12.80
2017-09-28T20:22:08.821Z,11.50
2017-09-28T20:24:36.499Z,13.60
2017-09-28T20:27:04.063Z,11.83
2017-09-28T20:29:32.156Z,12.90
2017-09-28T20:31:59.803Z,12.07
2017-09-28T20:34:27.381Z,12.70
2017-09-28T20:36:54.893Z,12.33
2017-09-28T20:39:22.938Z,14.23
2017-09-28T20:41:50.483Z,13.00
2017-09-28T20:44:18.781Z,12.93
2017-09-28T20:46:54.189Z,12.30
2017-09-28T20:49:21.782Z,14.47
2017-09-28T20:51:50.137Z,13.40
2017-09-28T20:54:17.716Z,13.00
2017-09-28T20:56:48.213Z,13.23
2017-09-28T20:59:16.812Z,13.30
2017-09-28T21:01:45.434Z,13.70
2017-09-28T21:04:13.216Z,13.23
2017-09-28T21:06:45.696Z,13.60
2017-09-28T21:09:13.346Z,13.93
2017-09-28T21:11:44.468Z,12.80
2017-09-28T21:14:15.717Z,13.77
2017-09-28T21:16:43.302Z,13.57
2017-09-28T21:19:10.900Z,14.63
2017-09-28T21:21:39.659Z,13.33
2017-09-28T21:24:07.221Z,13.40
2017-09-28T21:26:36.565Z,14.10
2017-09-28T21:29:04.888Z,13.97
2017-09-28T21:31:32.521Z,12.63
2017-09-28T21:34:01.167Z,12.40
2017-09-28T21:36:29.433Z,13.73
2017-09-28T21:38:57.738Z,13.73
2017-09-28T21:41:25.267Z,13.70
2017-09-28T21:43:52.822Z,15.63
2017-09-28T21:46:20.328Z,15.50
2017-09-28T21:48:49.504Z,15.10
2017-09-28T21:51:17.370Z,15.23
2017-09-28T21:53:45.044Z,15.20
2017-09-28T21:56:12.568Z,14.90
2017-09-28T21:58:40.102Z,14.10
2017-09-28T22:01:07.658Z,14.10
2017-09-28T22:03:35.184Z,15.13
2017-09-28T22:06:02.760Z,14.20
2017-09-28T22:08:31.075Z,14.87
2017-09-28T22:10:58.638Z,13.97
2017-09-28T22:13:26.159Z,15.03
2017-09-28T22:15:54.428Z,15.40
2017-09-28T22:18:22.754Z,15.87
2017-09-28T22:20:51.084Z,14.83
2017-09-28T22:23:18.619Z,16.03
2017-09-28T22:25:46.228Z,14.73
2017-09-28T22:28:13.779Z,15.50
2017-09-28T22:30:41.406Z,14.77
2017-09-28T22:33:08.960Z,14.17
2017-09-28T22:35:36.537Z,13.73
2017-09-28T22:38:04.097Z,16.10
2017-09-28T22:40:31.615Z,13.10
2017-09-28T22:42:59.956Z,12.93
2017-09-28T22:45:27.486Z,13.17
2017-09-28T22:47:55.005Z,13.30
2017-09-28T22:50:22.754Z,13.80
2017-09-28T22:52:50.328Z,14.33
2017-09-28T22:55:17.849Z,14.57
2017-09-28T22:57:46.151Z,13.30
2017-09-28T23:00:13.689Z,14.67
2017-09-28T23:02:41.229Z,12.17
2017-09-28T23:05:08.753Z,12.13
2017-09-28T23:07:36.309Z,14.10
2017-09-28T23:10:05.003Z,13.93
2017-09-28T23:12:32.531Z,14.63
2017-09-28T23:15:00.111Z,13.53
2017-09-28T23:17:27.813Z,12.63
2017-09-28T23:19:55.425Z,12.80
2017-09-28T23:22:22.943Z,13.40
2017-09-28T23:24:53.021Z,13.70
2017-09-28T23:27:20.726Z,12.57
2017-09-28T23:29:48.308Z,12.57
2017-09-28T23:32:15.920Z,13.43
2017-09-28T23:34:43.596Z,13.70
2017-09-28T23:37:12.017Z,12.77
2017-09-28T23:39:39.579Z,12.67
2017-09-28T23:42:07.141Z,12.93
2017-09-28T23:44:34.700Z,12.73
2017-09-28T23:47:02.250Z,12.70
2017-09-28T23:49:29.780Z,12.50
2017-09-28T23:51:57.282Z,13.40
2017-09-28T23:54:24.812Z,14.43
2017-09-28T23:56:52.363Z,12.80
2017-09-28T23:59:20.688Z,13.23
